Fort Bridger, Wyoming
Current Conditions -  °F | °C
As of 3:35 PM on Sunday 23 Nov 2014 (Local Time) from KFBR Reporting Station
Light Snow Light Snow  
Wind Chill: 13°   Ceiling: 4100
Heat Index: 26°   Visibility: 7mi
Dew Point: 20°   Wind: 20mph
Humidity: 76%   Direction: 280°W
Pressure: 30.11"   Gusts: 25mph
Location:  41.32°N, 110.39°W
Report Text: KFBR 232235Z AUTO 28017G22KT 7SM -SN SCT014 SCT031 BKN041 M03/M07 A3011 RMK AO2 T10321068
Loading
Personal Weather Stations






























Interactive Weather Map New forecast layout! Learn more

10-Day Weather Forecast

Advertisements
Track Severe Weather on mobile